Knut M — LK5088 — position and weather

sailwx.info

Track history (hours):
 
Tides and Currents Weather Stations Pressure Air Temp Water Temp Dewpoint Dewpoint Depression Visibility Wind Speed Wind Dir Waves Ship Positions

Knut M

Last reported at 2017-Nov-16 09:06 UTC. Time now 2017-Nov-21 06:27 UTC.
Position N 70°24' E 022°06'.

Length 14 m.

Type: Fishing. MMSI: 257039740.

Date/timePositionNaut miles runAvg speedWind from/ knotsBaromVisibWave heightAir tempDewpointWater temp
2017-Nov-16 09:06N 70°24' E 022°06'0 0.7
2017-Nov-16 09:00N 70°24' E 022°06'0 0.7
2017-Nov-16 08:30N 70°24' E 022°07'4 8.3
2017-Nov-16 07:59N 70°25' E 022°20'4 8.6
2017-Nov-16 07:29N 70°27' E 022°32'4 8.8
2017-Nov-16 07:00N 70°29' E 022°43'4 8.5
2017-Nov-16 06:30N 70°31' E 022°54'4 8.6
2017-Nov-16 06:00N 70°33' E 023°05'1 1.6
2017-Nov-16 05:30N 70°33' E 023°07'1 1.0
2017-Nov-16 05:00N 70°33' E 023°08'1 1.7
2017-Nov-16 04:30N 70°33' E 023°11'1 1.8
2017-Nov-16 04:00N 70°34' E 023°14'1 1.8
2017-Nov-16 03:30N 70°34' E 023°16'1 1.4
2017-Nov-16 02:55N 70°34' E 023°19'1 1.2
2017-Nov-16 02:30N 70°34' E 023°20'1 1.3
2017-Nov-16 01:59N 70°34' E 023°22'1 1.3
2017-Nov-16 01:27N 70°34' E 023°24'3 6.6
2017-Nov-16 01:00N 70°33' E 023°16'2 3.9
2017-Nov-16 00:28N 70°33' E 023°09'0 0.0
2017-Nov-15 23:58N 70°33' E 023°09'0 0.0
2017-Nov-15 23:28N 70°33' E 023°09'0 0.0
2017-Nov-15 22:58N 70°33' E 023°09'0 0.0
2017-Nov-15 22:28N 70°33' E 023°09'0 0.0
2017-Nov-15 21:58N 70°33' E 023°09'0 0.0
2017-Nov-15 21:28N 70°33' E 023°09'0 0.0
2017-Nov-15 20:58N 70°33' E 023°09'0 0.0
2017-Nov-15 20:28N 70°33' E 023°09'0 0.0
2017-Nov-15 19:58N 70°33' E 023°09'0 0.0
2017-Nov-15 19:28N 70°33' E 023°09'0 0.0
2017-Nov-15 18:57N 70°33' E 023°09'3 7.1
2017-Nov-15 18:31N 70°34' E 023°19'1 1.4
2017-Nov-15 18:00N 70°34' E 023°21'3 5.2
2017-Nov-15 17:30N 70°34' E 023°13'3 6.0
2017-Nov-15 17:00N 70°32' E 023°05'4 8.6
2017-Nov-15 16:30N 70°30' E 022°54'4 8.7
2017-Nov-15 15:59N 70°28' E 022°42'4 8.4
2017-Nov-15 15:30N 70°26' E 022°32'4 8.5
2017-Nov-15 15:00N 70°24' E 022°20'4 8.5
2017-Nov-15 14:30N 70°22' E 022°09'2 3.0
2017-Nov-15 14:00N 70°24' E 022°06'3 5.2
2017-Nov-15 13:30N 70°26' E 022°05'4 7.9
2017-Nov-15 13:00N 70°30' E 022°05'4 8.3
2017-Nov-15 12:29N 70°34' E 022°11'3 5.0
2017-Nov-15 11:58N 70°35' E 022°17'0 0.0
2017-Nov-15 11:28N 70°35' E 022°17'0 0.0
2017-Nov-15 10:58N 70°35' E 022°17'0 0.0
2017-Nov-15 10:28N 70°35' E 022°17'0 0.0
2017-Nov-15 09:58N 70°35' E 022°17'0 0.0
2017-Nov-15 09:28N 70°35' E 022°17'3 5.9
2017-Nov-15 08:59N 70°35' E 022°09'4 7.2
2017-Nov-15 08:29N 70°36' E 021°58'2 3.2
2017-Nov-15 07:59N 70°38' E 021°59'1 2.9
2017-Nov-15 07:29N 70°36' E 021°58'4 8.4
2017-Nov-15 07:00N 70°33' E 022°01'4 8.1
2017-Nov-15 06:30N 70°29' E 022°05'2 3.6
2017-Nov-15 05:58N 70°29' E 022°10'0 0.0
2017-Nov-15 05:28N 70°29' E 022°10'0 0.0
2017-Nov-15 04:58N 70°29' E 022°10'0 0.0
2017-Nov-15 04:28N 70°29' E 022°10'0 0.0
2017-Nov-15 03:58N 70°29' E 022°10'0 0.0
2017-Nov-15 03:28N 70°29' E 022°10'0 0.0
2017-Nov-15 02:58N 70°29' E 022°10'0 0.0
2017-Nov-15 02:28N 70°29' E 022°10'0 0.0
2017-Nov-15 01:58N 70°29' E 022°10'0 0.0
2017-Nov-15 01:28N 70°29' E 022°10'0 0.0
2017-Nov-15 00:58N 70°29' E 022°10'0 0.0
2017-Nov-15 00:28N 70°29' E 022°10'0 0.0
2017-Nov-14 23:58N 70°29' E 022°10'0 0.0
2017-Nov-14 23:28N 70°29' E 022°10'0 0.0
2017-Nov-14 22:58N 70°29' E 022°10'0 0.0
2017-Nov-14 22:28N 70°29' E 022°10'0 0.0
2017-Nov-14 21:58N 70°29' E 022°10'0 0.0
2017-Nov-14 21:28N 70°29' E 022°10'0 0.0
2017-Nov-14 20:58N 70°29' E 022°10'0 0.0
2017-Nov-14 20:28N 70°29' E 022°10'0 0.0
2017-Nov-14 19:58N 70°29' E 022°10'2 5.2
2017-Nov-14 19:30N 70°28' E 022°17'4 8.0
2017-Nov-14 18:59N 70°26' E 022°28'4 8.1
2017-Nov-14 18:29N 70°25' E 022°40'4 8.3
2017-Nov-14 17:59N 70°23' E 022°50'4 8.1
2017-Nov-14 17:30N 70°20' E 022°58'4 8.4
2017-Nov-14 17:00N 70°16' E 023°03'3 5.2
2017-Nov-14 16:30N 70°13' E 023°02'0 0.5
2017-Nov-14 15:59N 70°14' E 023°02'0 0.6
2017-Nov-14 15:28N 70°14' E 023°02'0 0.8
2017-Nov-14 14:58N 70°14' E 023°01'1 3.1
2017-Nov-14 14:30N 70°15' E 023°05'4 8.6
2017-Nov-14 14:01N 70°17' E 023°16'4 8.4
2017-Nov-14 13:30N 70°20' E 023°24'1 1.6
2017-Nov-14 12:59N 70°21' E 023°26'1 1.4
2017-Nov-14 12:30N 70°21' E 023°27'1 1.4
2017-Nov-14 12:00N 70°22' E 023°28'1 1.4
2017-Nov-14 11:29N 70°23' E 023°29'1 1.4
2017-Nov-14 11:00N 70°23' E 023°31'1 1.2
2017-Nov-14 10:29N 70°23' E 023°32'0 1.0
2017-Nov-14 10:00N 70°24' E 023°32'1 1.2
2017-Nov-14 09:30N 70°23' E 023°33'1 1.6
2017-Nov-14 09:00N 70°23' E 023°32'1 1.6
2017-Nov-14 08:28N 70°22' E 023°31'1 1.6
2017-Nov-14 07:58N 70°21' E 023°29'1 1.5
2017-Nov-14 07:30N 70°21' E 023°28'3 5.5
2017-Nov-14 06:59N 70°18' E 023°24'2 4.4
2017-Nov-14 06:28N 70°16' E 023°24'0 0.0
2017-Nov-14 05:58N 70°16' E 023°24'0 0.0
2017-Nov-14 05:28N 70°16' E 023°24'0 0.0
2017-Nov-14 04:58N 70°16' E 023°24'0 0.0
2017-Nov-14 04:28N 70°16' E 023°24'0 0.0
2017-Nov-14 03:58N 70°16' E 023°24'0 0.0
2017-Nov-14 03:28N 70°16' E 023°24'0 0.0
2017-Nov-14 02:58N 70°16' E 023°24'0 0.0
2017-Nov-14 02:28N 70°16' E 023°24'0 0.0
2017-Nov-14 01:58N 70°16' E 023°24'0 0.0
2017-Nov-14 01:28N 70°16' E 023°24'0 0.0
2017-Nov-14 00:58N 70°16' E 023°24'0 0.0
2017-Nov-14 00:28N 70°16' E 023°24'1 1.8
2017-Nov-14 00:00N 70°16' E 023°22'4 8.2
2017-Nov-13 23:30N 70°20' E 023°26'3 5.7
2017-Nov-13 23:00N 70°22' E 023°32'1 1.4
2017-Nov-13 22:29N 70°23' E 023°32'3 5.4
2017-Nov-13 22:00N 70°21' E 023°27'29 1.2
2017-Nov-12 22:05N 70°43' E 022°29'1 8.4
2017-Nov-12 22:00N 70°43' E 022°30'4 5.1
2017-Nov-12 21:14N 70°43' E 022°42'2 7.2
2017-Nov-12 20:57N 70°44' E 022°38'3 5.6
2017-Nov-12 20:30N 70°47' E 022°36'3 5.4
2017-Nov-12 19:59N 70°48' E 022°28'2 5.0
2017-Nov-12 19:30N 70°49' E 022°21'2 4.8
2017-Nov-12 18:59N 70°49' E 022°14'4 8.9
2017-Nov-12 18:30N 70°45' E 022°06'4 8.7
2017-Nov-12 18:00N 70°42' E 021°58'4 8.6
2017-Nov-12 17:30N 70°38' E 021°51'3 4.8
2017-Nov-12 16:58N 70°38' E 021°59'2 4.5
2017-Nov-12 16:29N 70°36' E 021°57'4 7.4
2017-Nov-12 16:00N 70°35' E 022°08'3 5.9
2017-Nov-12 15:28N 70°35' E 022°17'0 0.0
2017-Nov-12 14:58N 70°35' E 022°17'0 0.0
2017-Nov-12 14:28N 70°35' E 022°17'0 0.0
2017-Nov-12 13:58N 70°35' E 022°17'0 0.0
2017-Nov-12 13:28N 70°35' E 022°17'0 0.0
2017-Nov-12 12:58N 70°35' E 022°17'0 0.0
2017-Nov-12 12:28N 70°35' E 022°17'0 0.0
2017-Nov-12 11:58N 70°35' E 022°17'0 0.0
2017-Nov-12 11:28N 70°35' E 022°17'0 0.0
2017-Nov-12 10:58N 70°35' E 022°17'0 0.0
2017-Nov-12 10:28N 70°35' E 022°17'0 0.0
2017-Nov-12 09:58N 70°35' E 022°17'0 0.0
2017-Nov-12 09:28N 70°35' E 022°17'0 0.0
2017-Nov-12 08:58N 70°35' E 022°17'0 0.0
2017-Nov-12 08:28N 70°35' E 022°17'0 0.0
2017-Nov-12 07:58N 70°35' E 022°17'0 0.0
2017-Nov-12 07:28N 70°35' E 022°17'0 0.0
2017-Nov-12 06:58N 70°35' E 022°17'0 0.0
2017-Nov-12 06:28N 70°35' E 022°17'0 0.0
2017-Nov-12 05:58N 70°35' E 022°17'0 0.0
2017-Nov-12 05:28N 70°35' E 022°17'0 0.0
2017-Nov-12 04:58N 70°35' E 022°17'0 0.0
2017-Nov-12 04:28N 70°35' E 022°17'0 0.0
2017-Nov-12 03:58N 70°35' E 022°17'0 0.0
2017-Nov-12 03:28N 70°35' E 022°17'0 0.0
2017-Nov-12 02:58N 70°35' E 022°17'0 0.0
2017-Nov-12 02:28N 70°35' E 022°17'0 0.0
2017-Nov-12 01:58N 70°35' E 022°17'0 0.0
2017-Nov-12 01:28N 70°35' E 022°17'0 0.0
2017-Nov-12 00:58N 70°35' E 022°17'0 0.0
2017-Nov-12 00:28N 70°35' E 022°17'0 0.0
2017-Nov-11 23:58N 70°35' E 022°17'0 0.0
2017-Nov-11 23:28N 70°35' E 022°17'0 0.0
2017-Nov-11 22:58N 70°35' E 022°17'0 0.0
2017-Nov-11 22:28N 70°35' E 022°17'0 0.0
2017-Nov-11 21:58N 70°35' E 022°17'0 0.0
2017-Nov-11 21:28N 70°35' E 022°17'0 0.0
2017-Nov-11 20:58N 70°35' E 022°17'0 0.0
2017-Nov-11 20:28N 70°35' E 022°17'0 0.0
2017-Nov-11 19:58N 70°35' E 022°17'0 0.0
2017-Nov-11 19:28N 70°35' E 022°17'0 0.0
2017-Nov-11 18:58N 70°35' E 022°17'0 0.0
2017-Nov-11 18:28N 70°35' E 022°17'0 0.0
2017-Nov-11 17:58N 70°35' E 022°17'0 0.0
2017-Nov-11 17:25N 70°35' E 022°17'0 0.0
2017-Nov-11 16:58N 70°35' E 022°17'0 0.0
2017-Nov-11 16:28N 70°35' E 022°17'0 0.0
2017-Nov-11 15:58N 70°35' E 022°17'0 0.0
2017-Nov-11 15:28N 70°35' E 022°17'0 0.0
2017-Nov-11 14:58N 70°35' E 022°17'0 0.0
2017-Nov-11 14:28N 70°35' E 022°17'0 0.0
2017-Nov-11 13:58N 70°35' E 022°17'0 0.0
2017-Nov-11 13:28N 70°35' E 022°17'0 0.0
2017-Nov-11 12:58N 70°35' E 022°17'0 0.0
2017-Nov-11 12:28N 70°35' E 022°17'0 0.0
2017-Nov-11 11:58N 70°35' E 022°17'0 0.0
2017-Nov-11 11:28N 70°35' E 022°17'0 0.0
2017-Nov-11 10:58N 70°35' E 022°17'0 0.0
2017-Nov-11 10:28N 70°35' E 022°17'0 0.0
2017-Nov-11 09:58N 70°35' E 022°17'0 0.0
2017-Nov-11 09:28N 70°35' E 022°17'0 0.0
2017-Nov-11 08:58N 70°35' E 022°17'0 0.0
2017-Nov-11 08:28N 70°35' E 022°17'0 0.0
2017-Nov-11 07:58N 70°35' E 022°17'0 0.0
2017-Nov-11 07:28N 70°35' E 022°17'0 0.0
2017-Nov-11 06:58N 70°35' E 022°17'0 0.0
2017-Nov-11 06:28N 70°35' E 022°17'0 0.0
2017-Nov-11 05:58N 70°35' E 022°17'0 0.0
2017-Nov-11 05:28N 70°35' E 022°17'0 0.0
2017-Nov-11 04:58N 70°35' E 022°17'0 0.0
2017-Nov-11 04:28N 70°35' E 022°17'0 0.0
2017-Nov-11 03:58N 70°35' E 022°17'0 0.0
2017-Nov-11 03:28N 70°35' E 022°17'0 0.0
2017-Nov-11 02:58N 70°35' E 022°17'0 0.0
2017-Nov-11 02:28N 70°35' E 022°17'0 0.0
2017-Nov-11 01:58N 70°35' E 022°17'0 0.0
2017-Nov-11 01:28N 70°35' E 022°17'0 0.0
2017-Nov-11 00:58N 70°35' E 022°17'0 0.0
2017-Nov-11 00:28N 70°35' E 022°17'0 0.0
2017-Nov-10 23:58N 70°35' E 022°17'0 0.0
2017-Nov-10 23:28N 70°35' E 022°17'0 0.0
2017-Nov-10 22:58N 70°35' E 022°17'0 0.0
2017-Nov-10 22:28N 70°35' E 022°17'0 0.0
2017-Nov-10 21:58N 70°35' E 022°17'0 0.0
2017-Nov-10 21:28N 70°35' E 022°17'0 0.0
2017-Nov-10 20:58N 70°35' E 022°17'0 0.0
2017-Nov-10 20:28N 70°35' E 022°17'0 0.0
2017-Nov-10 19:58N 70°35' E 022°17'0 0.0
2017-Nov-10 19:28N 70°35' E 022°17'0 0.0
2017-Nov-10 18:58N 70°35' E 022°17'0 0.0
2017-Nov-10 18:28N 70°35' E 022°17'0 0.0
2017-Nov-10 17:58N 70°35' E 022°17'0 0.0
2017-Nov-10 17:28N 70°35' E 022°17'0 0.0
2017-Nov-10 16:58N 70°35' E 022°17'0 0.0
2017-Nov-10 16:28N 70°35' E 022°17'0 0.0
2017-Nov-10 15:58N 70°35' E 022°17'0 0.0
2017-Nov-10 15:28N 70°35' E 022°17'0 0.0
2017-Nov-10 14:58N 70°35' E 022°17'0 0.0
2017-Nov-10 14:28N 70°35' E 022°17'0 0.0
2017-Nov-10 13:58N 70°35' E 022°17'0 0.0
2017-Nov-10 13:29N 70°35' E 022°17'0 0.0
2017-Nov-10 12:58N 70°35' E 022°17'0 0.0
2017-Nov-10 12:28N 70°35' E 022°17'0 0.0
2017-Nov-10 11:58N 70°35' E 022°17'0 0.0
2017-Nov-10 11:28N 70°35' E 022°17'0 0.0
2017-Nov-10 10:58N 70°35' E 022°17'0 0.0
2017-Nov-10 10:28N 70°35' E 022°17'0 0.0
2017-Nov-10 09:58N 70°35' E 022°17'0 0.0
2017-Nov-10 09:29N 70°35' E 022°17'0 0.0
2017-Nov-10 08:59N 70°35' E 022°17'0 0.0
2017-Nov-10 08:28N 70°35' E 022°17'0 0.0
2017-Nov-10 07:59N 70°35' E 022°17'0 0.0
2017-Nov-10 07:29N 70°35' E 022°17'0 0.0
2017-Nov-10 06:59N 70°35' E 022°17'0 0.0
2017-Nov-10 06:29N 70°35' E 022°17'0 0.0
2017-Nov-10 05:59N 70°35' E 022°17'0 0.0
2017-Nov-10 05:29N 70°35' E 022°17'0 0.0
2017-Nov-10 04:59N 70°35' E 022°17'0 0.0
2017-Nov-10 04:29N 70°35' E 022°17'0 0.0
2017-Nov-10 03:59N 70°35' E 022°17'0 0.0
2017-Nov-10 03:29N 70°35' E 022°17'0 0.0
2017-Nov-10 02:59N 70°35' E 022°17'0 0.0
2017-Nov-10 02:29N 70°35' E 022°17'0 0.0
2017-Nov-10 01:59N 70°35' E 022°17'0 0.0
2017-Nov-10 01:26N 70°35' E 022°17'0 0.0
2017-Nov-10 00:59N 70°35' E 022°17'0 0.0
2017-Nov-10 00:29N 70°35' E 022°17'0 0.0
2017-Nov-09 23:59N 70°35' E 022°17'0 0.0
2017-Nov-09 23:29N 70°35' E 022°17'0 0.0
2017-Nov-09 22:59N 70°35' E 022°17'0 0.0
2017-Nov-09 22:29N 70°35' E 022°17'0 0.0
2017-Nov-09 21:59N 70°35' E 022°17'0 0.0
2017-Nov-09 21:26N 70°35' E 022°17'0 0.0
2017-Nov-09 20:59N 70°35' E 022°17'0 0.0
2017-Nov-09 20:29N 70°35' E 022°17'0 0.0
2017-Nov-09 19:59N 70°35' E 022°17'0 0.0
2017-Nov-09 19:29N 70°35' E 022°17'0 0.0
2017-Nov-09 18:59N 70°35' E 022°17'0 0.0
2017-Nov-09 18:29N 70°35' E 022°17'0 0.0
2017-Nov-09 17:59N 70°35' E 022°17'0 0.0
2017-Nov-09 17:29N 70°35' E 022°17'0 0.0
2017-Nov-09 16:59N 70°35' E 022°17'0 0.0
2017-Nov-09 16:29N 70°35' E 022°17'0 0.0
2017-Nov-09 15:59N 70°35' E 022°17'0 0.0
2017-Nov-09 15:26N 70°35' E 022°17'0 0.0
2017-Nov-09 14:59N 70°35' E 022°17'0 0.0
2017-Nov-09 14:29N 70°35' E 022°17'0 0.0
2017-Nov-09 13:59N 70°35' E 022°17'0 0.0
2017-Nov-09 13:29N 70°35' E 022°17'0 0.0
2017-Nov-09 12:59N 70°35' E 022°17'0 0.0
2017-Nov-09 12:29N 70°35' E 022°17'0 0.0
2017-Nov-09 11:59N 70°35' E 022°17'0 0.0
2017-Nov-09 11:29N 70°35' E 022°17'0 0.0
2017-Nov-09 10:59N 70°35' E 022°17'0 0.1
2017-Nov-09 10:28N 70°35' E 022°17'0 0.0
2017-Nov-09 09:58N 70°35' E 022°17'0 0.1
2017-Nov-09 09:30N 70°35' E 022°17'0 0.0
2017-Nov-09 09:00N 70°35' E 022°17'0 0.0
2017-Nov-09 08:30N 70°35' E 022°17'0 0.0
2017-Nov-09 08:00N 70°35' E 022°17'0 0.0
2017-Nov-09 07:30N 70°35' E 022°17'0 0.0
2017-Nov-09 07:00N 70°35' E 022°17'0 0.0
2017-Nov-09 06:30N 70°35' E 022°17'0 0.0
2017-Nov-09 06:00N 70°35' E 022°17'0 0.0
2017-Nov-09 05:30N 70°35' E 022°17'0 0.0
2017-Nov-09 05:00N 70°35' E 022°17'0 0.0
2017-Nov-09 04:27N 70°35' E 022°17'0 0.0
2017-Nov-09 04:00N 70°35' E 022°17'0 0.0
2017-Nov-09 03:30N 70°35' E 022°17'0 0.0
2017-Nov-09 03:00N 70°35' E 022°17'0 0.0
2017-Nov-09 02:30N 70°35' E 022°17'0 0.0
2017-Nov-09 01:59N 70°35' E 022°17'3 6.3
2017-Nov-09 01:29N 70°34' E 022°09'4 8.5
2017-Nov-09 01:00N 70°30' E 022°04'3 6.0
2017-Nov-09 00:30N 70°28' E 022°11'5 9.4
2017-Nov-08 23:59N 70°29' E 022°25'4 9.0
2017-Nov-08 23:29N 70°29' E 022°38'4 8.5
2017-Nov-08 23:00N 70°31' E 022°50'4 8.3
2017-Nov-08 22:30N 70°33' E 023°01'4 8.6
2017-Nov-08 22:00N 70°36' E 023°09'5 8.9
2017-Nov-08 21:30N 70°40' E 023°17'5 8.9
2017-Nov-08 21:00N 70°43' E 023°27'4 8.7
2017-Nov-08 20:30N 70°45' E 023°37'4 8.2
2017-Nov-08 20:00N 70°48' E 023°47'4 8.4
2017-Nov-08 19:30N 70°51' E 023°57'4 8.5
2017-Nov-08 19:00N 70°53' E 024°08'4 7.7
2017-Nov-08 18:29N 70°55' E 024°17'4 7.9
2017-Nov-08 18:00N 70°58' E 024°26'4 8.1
2017-Nov-08 17:29N 70°60' E 024°38'1 1.3
2017-Nov-08 16:59N 70°60' E 024°40'0 0.0
2017-Nov-08 16:29N 70°60' E 024°40'0 0.0
2017-Nov-08 15:59N 70°60' E 024°40'0 0.0
2017-Nov-08 15:29N 70°60' E 024°40'0 0.0
2017-Nov-08 14:59N 70°60' E 024°40'1 1.4
2017-Nov-08 14:28N 70°60' E 024°42'0 0.2
2017-Nov-08 14:00N 70°60' E 024°42'4 7.5
2017-Nov-08 13:30N 70°58' E 024°32'0 0.5
2017-Nov-08 13:00N 70°57' E 024°33'0 0.4
2017-Nov-08 12:30N 70°58' E 024°33'0 0.1
2017-Nov-08 12:00N 70°58' E 024°33'0 0.9
2017-Nov-08 11:30N 70°58' E 024°34'0 0.4
2017-Nov-08 10:52N 70°58' E 024°33'0 1.3
2017-Nov-08 10:30N 70°57' E 024°34'0 0.6
2017-Nov-08 10:00N 70°57' E 024°34'0 0.7
2017-Nov-08 09:30N 70°57' E 024°33'0 0.4
2017-Nov-08 09:00N 70°57' E 024°33'1 1.2
2017-Nov-08 08:30N 70°58' E 024°35'0 0.5
2017-Nov-08 07:58N 70°57' E 024°36'2 3.2
2017-Nov-08 07:30N 70°58' E 024°32'3 5.7
2017-Nov-08 07:00N 70°60' E 024°40'0 0.0
2017-Nov-08 06:30N 70°60' E 024°40'0 0.0
2017-Nov-08 06:00N 70°60' E 024°40'0 0.0
2017-Nov-08 05:30N 70°60' E 024°40'0 0.0
2017-Nov-08 05:00N 70°60' E 024°40'0 0.0
2017-Nov-08 04:30N 70°60' E 024°40'0 0.0
2017-Nov-08 04:00N 70°60' E 024°40'0 0.0
2017-Nov-08 03:30N 70°60' E 024°40'0 0.0
2017-Nov-08 03:00N 70°60' E 024°40'0 0.0
2017-Nov-08 02:30N 70°60' E 024°40'0 0.0
2017-Nov-08 02:00N 70°60' E 024°40'0 0.0
2017-Nov-08 01:30N 70°60' E 024°40'0 0.0
2017-Nov-08 01:00N 70°60' E 024°40'0 0.0
2017-Nov-08 00:30N 70°60' E 024°40'0 0.0
2017-Nov-08 00:00N 70°60' E 024°40'0 0.0
2017-Nov-07 23:30N 70°60' E 024°40'0 0.0
2017-Nov-07 23:00N 70°60' E 024°40'0 0.0
2017-Nov-07 22:30N 70°60' E 024°40'0 0.0
2017-Nov-07 22:00N 70°60' E 024°40'0 0.0
2017-Nov-07 21:30N 70°60' E 024°40'0 0.0
2017-Nov-07 21:00N 70°60' E 024°40'0 0.0
2017-Nov-07 20:30N 70°60' E 024°40'0 0.0
2017-Nov-07 20:00N 70°60' E 024°40'0 0.0
2017-Nov-07 19:30N 70°60' E 024°40'0 0.0
2017-Nov-07 19:00N 70°60' E 024°40'0 0.0
2017-Nov-07 18:30N 70°60' E 024°40'0 0.0
2017-Nov-07 18:00N 70°60' E 024°40'0 0.0
2017-Nov-07 17:30N 70°60' E 024°40'0 0.0
2017-Nov-07 17:00N 70°60' E 024°40'2 3.8
2017-Nov-07 16:30N 70°59' E 024°34'2 3.3
2017-Nov-07 16:00N 70°58' E 024°33'0 0.6
2017-Nov-07 15:30N 70°57' E 024°34'0 0.9
2017-Nov-07 14:59N 70°58' E 024°33'0 0.5
2017-Nov-07 14:30N 70°58' E 024°32'0 0.9
2017-Nov-07 14:00N 70°58' E 024°33'0 0.3
2017-Nov-07 13:29N 70°57' E 024°33'0 0.3
2017-Nov-07 13:00N 70°58' E 024°34'0 0.3
2017-Nov-07 12:28N 70°57' E 024°34'1 1.3
2017-Nov-07 11:59N 70°57' E 024°32'1 1.1
2017-Nov-07 11:31N 70°58' E 024°34'0 0.4
2017-Nov-07 11:00N 70°57' E 024°34'0 0.4
2017-Nov-07 10:29N 70°57' E 024°33'0 0.1
2017-Nov-07 10:00N 70°57' E 024°33'1 1.8
2017-Nov-07 09:29N 70°58' E 024°31'3 6.6
2017-Nov-07 09:00N 70°60' E 024°40'0 0.2
2017-Nov-07 08:30N 70°60' E 024°40'0 0.0
2017-Nov-07 08:00N 70°60' E 024°40'0 0.0
2017-Nov-07 07:30N 70°60' E 024°40'0 0.0
2017-Nov-07 07:00N 70°60' E 024°40'0 0.0
2017-Nov-07 06:30N 70°60' E 024°40'1 2.1
2017-Nov-07 06:00N 70°59' E 024°37'4 8.4
2017-Nov-07 05:30N 70°57' E 024°25'4 8.7
2017-Nov-07 05:00N 70°55' E 024°15'5 8.9
2017-Nov-07 04:30N 70°52' E 024°04'4 8.5
2017-Nov-07 04:00N 70°49' E 023°54'4 8.2
2017-Nov-07 03:30N 70°47' E 023°45'4 7.5
2017-Nov-07 03:00N 70°44' E 023°37'4 8.0
2017-Nov-07 02:30N 70°40' E 023°39'1 1.9
2017-Nov-07 02:00N 70°40' E 023°41'0 0.0
2017-Nov-07 01:30N 70°40' E 023°41'0 0.0
2017-Nov-07 01:00N 70°40' E 023°41'0 0.0
2017-Nov-07 00:30N 70°40' E 023°41'0 0.0
2017-Nov-07 00:00N 70°40' E 023°41'0 0.0
2017-Nov-06 23:30N 70°40' E 023°41'0 0.0
2017-Nov-06 23:00N 70°40' E 023°41'0 0.0
2017-Nov-06 22:30N 70°40' E 023°41'0 0.0
2017-Nov-06 22:00N 70°40' E 023°41'0 0.0
2017-Nov-06 21:30N 70°40' E 023°41'0 0.0
2017-Nov-06 21:00N 70°40' E 023°41'0 0.0
2017-Nov-06 20:30N 70°40' E 023°41'  
Track history (hours):
 
Tides and Currents Weather Stations Pressure Air Temp Water Temp Dewpoint Dewpoint Depression Visibility Wind Speed Wind Dir Waves Ship Positions

Knut M

Last reported at 2017-Nov-16 09:06 UTC. Time now 2017-Nov-21 06:27 UTC.
Position N 70°24' E 022°06'.

Length 14 m.

Type: Fishing. MMSI: 257039740.

Date/timePositionNaut miles runAvg speedWind from/ knotsBaromVisibWave heightAir tempDewpointWater temp
2017-Nov-16 09:06N 70°24' E 022°06'0 0.7
2017-Nov-16 09:00N 70°24' E 022°06'0 0.7
2017-Nov-16 08:30N 70°24' E 022°07'4 8.3
2017-Nov-16 07:59N 70°25' E 022°20'4 8.6
2017-Nov-16 07:29N 70°27' E 022°32'4 8.8
2017-Nov-16 07:00N 70°29' E 022°43'4 8.5
2017-Nov-16 06:30N 70°31' E 022°54'4 8.6
2017-Nov-16 06:00N 70°33' E 023°05'1 1.6
2017-Nov-16 05:30N 70°33' E 023°07'1 1.0
2017-Nov-16 05:00N 70°33' E 023°08'1 1.7
2017-Nov-16 04:30N 70°33' E 023°11'1 1.8
2017-Nov-16 04:00N 70°34' E 023°14'1 1.8
2017-Nov-16 03:30N 70°34' E 023°16'1 1.4
2017-Nov-16 02:55N 70°34' E 023°19'1 1.2
2017-Nov-16 02:30N 70°34' E 023°20'1 1.3
2017-Nov-16 01:59N 70°34' E 023°22'1 1.3
2017-Nov-16 01:27N 70°34' E 023°24'3 6.6
2017-Nov-16 01:00N 70°33' E 023°16'2 3.9
2017-Nov-16 00:28N 70°33' E 023°09'0 0.0
2017-Nov-15 23:58N 70°33' E 023°09'0 0.0
2017-Nov-15 23:28N 70°33' E 023°09'0 0.0
2017-Nov-15 22:58N 70°33' E 023°09'0 0.0
2017-Nov-15 22:28N 70°33' E 023°09'0 0.0
2017-Nov-15 21:58N 70°33' E 023°09'0 0.0
2017-Nov-15 21:28N 70°33' E 023°09'0 0.0
2017-Nov-15 20:58N 70°33' E 023°09'0 0.0
2017-Nov-15 20:28N 70°33' E 023°09'0 0.0
2017-Nov-15 19:58N 70°33' E 023°09'0 0.0
2017-Nov-15 19:28N 70°33' E 023°09'0 0.0
2017-Nov-15 18:57N 70°33' E 023°09'3 7.1
2017-Nov-15 18:31N 70°34' E 023°19'1 1.4
2017-Nov-15 18:00N 70°34' E 023°21'3 5.2
2017-Nov-15 17:30N 70°34' E 023°13'3 6.0
2017-Nov-15 17:00N 70°32' E 023°05'4 8.6
2017-Nov-15 16:30N 70°30' E 022°54'4 8.7
2017-Nov-15 15:59N 70°28' E 022°42'4 8.4
2017-Nov-15 15:30N 70°26' E 022°32'4 8.5
2017-Nov-15 15:00N 70°24' E 022°20'4 8.5
2017-Nov-15 14:30N 70°22' E 022°09'2 3.0
2017-Nov-15 14:00N 70°24' E 022°06'3 5.2
2017-Nov-15 13:30N 70°26' E 022°05'4 7.9
2017-Nov-15 13:00N 70°30' E 022°05'4 8.3
2017-Nov-15 12:29N 70°34' E 022°11'3 5.0
2017-Nov-15 11:58N 70°35' E 022°17'0 0.0
2017-Nov-15 11:28N 70°35' E 022°17'0 0.0
2017-Nov-15 10:58N 70°35' E 022°17'0 0.0
2017-Nov-15 10:28N 70°35' E 022°17'0 0.0
2017-Nov-15 09:58N 70°35' E 022°17'0 0.0
2017-Nov-15 09:28N 70°35' E 022°17'3 5.9
2017-Nov-15 08:59N 70°35' E 022°09'4 7.2
2017-Nov-15 08:29N 70°36' E 021°58'2 3.2
2017-Nov-15 07:59N 70°38' E 021°59'1 2.9
2017-Nov-15 07:29N 70°36' E 021°58'4 8.4
2017-Nov-15 07:00N 70°33' E 022°01'4 8.1
2017-Nov-15 06:30N 70°29' E 022°05'2 3.6
2017-Nov-15 05:58N 70°29' E 022°10'0 0.0
2017-Nov-15 05:28N 70°29' E 022°10'0 0.0
2017-Nov-15 04:58N 70°29' E 022°10'0 0.0
2017-Nov-15 04:28N 70°29' E 022°10'0 0.0
2017-Nov-15 03:58N 70°29' E 022°10'0 0.0
2017-Nov-15 03:28N 70°29' E 022°10'0 0.0
2017-Nov-15 02:58N 70°29' E 022°10'0 0.0
2017-Nov-15 02:28N 70°29' E 022°10'0 0.0
2017-Nov-15 01:58N 70°29' E 022°10'0 0.0
2017-Nov-15 01:28N 70°29' E 022°10'0 0.0
2017-Nov-15 00:58N 70°29' E 022°10'0 0.0
2017-Nov-15 00:28N 70°29' E 022°10'0 0.0
2017-Nov-14 23:58N 70°29' E 022°10'0 0.0
2017-Nov-14 23:28N 70°29' E 022°10'0 0.0
2017-Nov-14 22:58N 70°29' E 022°10'0 0.0
2017-Nov-14 22:28N 70°29' E 022°10'0 0.0
2017-Nov-14 21:58N 70°29' E 022°10'0 0.0
2017-Nov-14 21:28N 70°29' E 022°10'0 0.0
2017-Nov-14 20:58N 70°29' E 022°10'0 0.0
2017-Nov-14 20:28N 70°29' E 022°10'0 0.0
2017-Nov-14 19:58N 70°29' E 022°10'2 5.2
2017-Nov-14 19:30N 70°28' E 022°17'4 8.0
2017-Nov-14 18:59N 70°26' E 022°28'4 8.1
2017-Nov-14 18:29N 70°25' E 022°40'4 8.3
2017-Nov-14 17:59N 70°23' E 022°50'4 8.1
2017-Nov-14 17:30N 70°20' E 022°58'4 8.4
2017-Nov-14 17:00N 70°16' E 023°03'3 5.2
2017-Nov-14 16:30N 70°13' E 023°02'0 0.5
2017-Nov-14 15:59N 70°14' E 023°02'0 0.6
2017-Nov-14 15:28N 70°14' E 023°02'0 0.8
2017-Nov-14 14:58N 70°14' E 023°01'1 3.1
2017-Nov-14 14:30N 70°15' E 023°05'4 8.6
2017-Nov-14 14:01N 70°17' E 023°16'4 8.4
2017-Nov-14 13:30N 70°20' E 023°24'1 1.6
2017-Nov-14 12:59N 70°21' E 023°26'1 1.4
2017-Nov-14 12:30N 70°21' E 023°27'1 1.4
2017-Nov-14 12:00N 70°22' E 023°28'1 1.4
2017-Nov-14 11:29N 70°23' E 023°29'1 1.4
2017-Nov-14 11:00N 70°23' E 023°31'1 1.2
2017-Nov-14 10:29N 70°23' E 023°32'0 1.0
2017-Nov-14 10:00N 70°24' E 023°32'1 1.2
2017-Nov-14 09:30N 70°23' E 023°33'1 1.6
2017-Nov-14 09:00N 70°23' E 023°32'1 1.6
2017-Nov-14 08:28N 70°22' E 023°31'1 1.6
2017-Nov-14 07:58N 70°21' E 023°29'1 1.5
2017-Nov-14 07:30N 70°21' E 023°28'3 5.5
2017-Nov-14 06:59N 70°18' E 023°24'2 4.4
2017-Nov-14 06:28N 70°16' E 023°24'0 0.0
2017-Nov-14 05:58N 70°16' E 023°24'0 0.0
2017-Nov-14 05:28N 70°16' E 023°24'0 0.0
2017-Nov-14 04:58N 70°16' E 023°24'0 0.0
2017-Nov-14 04:28N 70°16' E 023°24'0 0.0
2017-Nov-14 03:58N 70°16' E 023°24'0 0.0
2017-Nov-14 03:28N 70°16' E 023°24'0 0.0
2017-Nov-14 02:58N 70°16' E 023°24'0 0.0
2017-Nov-14 02:28N 70°16' E 023°24'0 0.0
2017-Nov-14 01:58N 70°16' E 023°24'0 0.0
2017-Nov-14 01:28N 70°16' E 023°24'0 0.0
2017-Nov-14 00:58N 70°16' E 023°24'0 0.0
2017-Nov-14 00:28N 70°16' E 023°24'1 1.8
2017-Nov-14 00:00N 70°16' E 023°22'4 8.2
2017-Nov-13 23:30N 70°20' E 023°26'3 5.7
2017-Nov-13 23:00N 70°22' E 023°32'1 1.4
2017-Nov-13 22:29N 70°23' E 023°32'3 5.4
2017-Nov-13 22:00N 70°21' E 023°27'29 1.2
2017-Nov-12 22:05N 70°43' E 022°29'1 8.4
2017-Nov-12 22:00N 70°43' E 022°30'4 5.1
2017-Nov-12 21:14N 70°43' E 022°42'2 7.2
2017-Nov-12 20:57N 70°44' E 022°38'3 5.6
2017-Nov-12 20:30N 70°47' E 022°36'3 5.4
2017-Nov-12 19:59N 70°48' E 022°28'2 5.0
2017-Nov-12 19:30N 70°49' E 022°21'2 4.8
2017-Nov-12 18:59N 70°49' E 022°14'4 8.9
2017-Nov-12 18:30N 70°45' E 022°06'4 8.7
2017-Nov-12 18:00N 70°42' E 021°58'4 8.6
2017-Nov-12 17:30N 70°38' E 021°51'3 4.8
2017-Nov-12 16:58N 70°38' E 021°59'2 4.5
2017-Nov-12 16:29N 70°36' E 021°57'4 7.4
2017-Nov-12 16:00N 70°35' E 022°08'3 5.9
2017-Nov-12 15:28N 70°35' E 022°17'0 0.0
2017-Nov-12 14:58N 70°35' E 022°17'0 0.0
2017-Nov-12 14:28N 70°35' E 022°17'0 0.0
2017-Nov-12 13:58N 70°35' E 022°17'0 0.0
2017-Nov-12 13:28N 70°35' E 022°17'0 0.0
2017-Nov-12 12:58N 70°35' E 022°17'0 0.0
2017-Nov-12 12:28N 70°35' E 022°17'0 0.0
2017-Nov-12 11:58N 70°35' E 022°17'0 0.0
2017-Nov-12 11:28N 70°35' E 022°17'0 0.0
2017-Nov-12 10:58N 70°35' E 022°17'0 0.0
2017-Nov-12 10:28N 70°35' E 022°17'0 0.0
2017-Nov-12 09:58N 70°35' E 022°17'0 0.0
2017-Nov-12 09:28N 70°35' E 022°17'0 0.0
2017-Nov-12 08:58N 70°35' E 022°17'0 0.0
2017-Nov-12 08:28N 70°35' E 022°17'0 0.0
2017-Nov-12 07:58N 70°35' E 022°17'0 0.0
2017-Nov-12 07:28N 70°35' E 022°17'0 0.0
2017-Nov-12 06:58N 70°35' E 022°17'0 0.0
2017-Nov-12 06:28N 70°35' E 022°17'0 0.0
2017-Nov-12 05:58N 70°35' E 022°17'0 0.0
2017-Nov-12 05:28N 70°35' E 022°17'0 0.0
2017-Nov-12 04:58N 70°35' E 022°17'0 0.0
2017-Nov-12 04:28N 70°35' E 022°17'0 0.0
2017-Nov-12 03:58N 70°35' E 022°17'0 0.0
2017-Nov-12 03:28N 70°35' E 022°17'0 0.0
2017-Nov-12 02:58N 70°35' E 022°17'0 0.0
2017-Nov-12 02:28N 70°35' E 022°17'0 0.0
2017-Nov-12 01:58N 70°35' E 022°17'0 0.0
2017-Nov-12 01:28N 70°35' E 022°17'0 0.0
2017-Nov-12 00:58N 70°35' E 022°17'0 0.0
2017-Nov-12 00:28N 70°35' E 022°17'0 0.0
2017-Nov-11 23:58N 70°35' E 022°17'0 0.0
2017-Nov-11 23:28N 70°35' E 022°17'0 0.0
2017-Nov-11 22:58N 70°35' E 022°17'0 0.0
2017-Nov-11 22:28N 70°35' E 022°17'0 0.0
2017-Nov-11 21:58N 70°35' E 022°17'0 0.0
2017-Nov-11 21:28N 70°35' E 022°17'0 0.0
2017-Nov-11 20:58N 70°35' E 022°17'0 0.0
2017-Nov-11 20:28N 70°35' E 022°17'0 0.0
2017-Nov-11 19:58N 70°35' E 022°17'0 0.0
2017-Nov-11 19:28N 70°35' E 022°17'0 0.0
2017-Nov-11 18:58N 70°35' E 022°17'0 0.0
2017-Nov-11 18:28N 70°35' E 022°17'0 0.0
2017-Nov-11 17:58N 70°35' E 022°17'0 0.0
2017-Nov-11 17:25N 70°35' E 022°17'0 0.0
2017-Nov-11 16:58N 70°35' E 022°17'0 0.0
2017-Nov-11 16:28N 70°35' E 022°17'0 0.0
2017-Nov-11 15:58N 70°35' E 022°17'0 0.0
2017-Nov-11 15:28N 70°35' E 022°17'0 0.0
2017-Nov-11 14:58N 70°35' E 022°17'0 0.0
2017-Nov-11 14:28N 70°35' E 022°17'0 0.0
2017-Nov-11 13:58N 70°35' E 022°17'0 0.0
2017-Nov-11 13:28N 70°35' E 022°17'0 0.0
2017-Nov-11 12:58N 70°35' E 022°17'0 0.0
2017-Nov-11 12:28N 70°35' E 022°17'0 0.0
2017-Nov-11 11:58N 70°35' E 022°17'0 0.0
2017-Nov-11 11:28N 70°35' E 022°17'0 0.0
2017-Nov-11 10:58N 70°35' E 022°17'0 0.0
2017-Nov-11 10:28N 70°35' E 022°17'0 0.0
2017-Nov-11 09:58N 70°35' E 022°17'0 0.0
2017-Nov-11 09:28N 70°35' E 022°17'0 0.0
2017-Nov-11 08:58N 70°35' E 022°17'0 0.0
2017-Nov-11 08:28N 70°35' E 022°17'0 0.0
2017-Nov-11 07:58N 70°35' E 022°17'0 0.0
2017-Nov-11 07:28N 70°35' E 022°17'0 0.0
2017-Nov-11 06:58N 70°35' E 022°17'0 0.0
2017-Nov-11 06:28N 70°35' E 022°17'0 0.0
2017-Nov-11 05:58N 70°35' E 022°17'0 0.0
2017-Nov-11 05:28N 70°35' E 022°17'0 0.0
2017-Nov-11 04:58N 70°35' E 022°17'0 0.0
2017-Nov-11 04:28N 70°35' E 022°17'0 0.0
2017-Nov-11 03:58N 70°35' E 022°17'0 0.0
2017-Nov-11 03:28N 70°35' E 022°17'0 0.0
2017-Nov-11 02:58N 70°35' E 022°17'0 0.0
2017-Nov-11 02:28N 70°35' E 022°17'0 0.0
2017-Nov-11 01:58N 70°35' E 022°17'0 0.0
2017-Nov-11 01:28N 70°35' E 022°17'0 0.0
2017-Nov-11 00:58N 70°35' E 022°17'0 0.0
2017-Nov-11 00:28N 70°35' E 022°17'0 0.0
2017-Nov-10 23:58N 70°35' E 022°17'0 0.0
2017-Nov-10 23:28N 70°35' E 022°17'0 0.0
2017-Nov-10 22:58N 70°35' E 022°17'0 0.0
2017-Nov-10 22:28N 70°35' E 022°17'0 0.0
2017-Nov-10 21:58N 70°35' E 022°17'0 0.0
2017-Nov-10 21:28N 70°35' E 022°17'0 0.0
2017-Nov-10 20:58N 70°35' E 022°17'0 0.0
2017-Nov-10 20:28N 70°35' E 022°17'0 0.0
2017-Nov-10 19:58N 70°35' E 022°17'0 0.0
2017-Nov-10 19:28N 70°35' E 022°17'0 0.0
2017-Nov-10 18:58N 70°35' E 022°17'0 0.0
2017-Nov-10 18:28N 70°35' E 022°17'0 0.0
2017-Nov-10 17:58N 70°35' E 022°17'0 0.0
2017-Nov-10 17:28N 70°35' E 022°17'0 0.0
2017-Nov-10 16:58N 70°35' E 022°17'0 0.0
2017-Nov-10 16:28N 70°35' E 022°17'0 0.0
2017-Nov-10 15:58N 70°35' E 022°17'0 0.0
2017-Nov-10 15:28N 70°35' E 022°17'0 0.0
2017-Nov-10 14:58N 70°35' E 022°17'0 0.0
2017-Nov-10 14:28N 70°35' E 022°17'0 0.0
2017-Nov-10 13:58N 70°35' E 022°17'0 0.0
2017-Nov-10 13:29N 70°35' E 022°17'0 0.0
2017-Nov-10 12:58N 70°35' E 022°17'0 0.0
2017-Nov-10 12:28N 70°35' E 022°17'0 0.0
2017-Nov-10 11:58N 70°35' E 022°17'0 0.0
2017-Nov-10 11:28N 70°35' E 022°17'0 0.0
2017-Nov-10 10:58N 70°35' E 022°17'0 0.0
2017-Nov-10 10:28N 70°35' E 022°17'0 0.0
2017-Nov-10 09:58N 70°35' E 022°17'0 0.0
2017-Nov-10 09:29N 70°35' E 022°17'0 0.0
2017-Nov-10 08:59N 70°35' E 022°17'0 0.0
2017-Nov-10 08:28N 70°35' E 022°17'0 0.0
2017-Nov-10 07:59N 70°35' E 022°17'0 0.0
2017-Nov-10 07:29N 70°35' E 022°17'0 0.0
2017-Nov-10 06:59N 70°35' E 022°17'0 0.0
2017-Nov-10 06:29N 70°35' E 022°17'0 0.0
2017-Nov-10 05:59N 70°35' E 022°17'0 0.0
2017-Nov-10 05:29N 70°35' E 022°17'0 0.0
2017-Nov-10 04:59N 70°35' E 022°17'0 0.0
2017-Nov-10 04:29N 70°35' E 022°17'0 0.0
2017-Nov-10 03:59N 70°35' E 022°17'0 0.0
2017-Nov-10 03:29N 70°35' E 022°17'0 0.0
2017-Nov-10 02:59N 70°35' E 022°17'0 0.0
2017-Nov-10 02:29N 70°35' E 022°17'0 0.0
2017-Nov-10 01:59N 70°35' E 022°17'0 0.0
2017-Nov-10 01:26N 70°35' E 022°17'0 0.0
2017-Nov-10 00:59N 70°35' E 022°17'0 0.0
2017-Nov-10 00:29N 70°35' E 022°17'0 0.0
2017-Nov-09 23:59N 70°35' E 022°17'0 0.0
2017-Nov-09 23:29N 70°35' E 022°17'0 0.0
2017-Nov-09 22:59N 70°35' E 022°17'0 0.0
2017-Nov-09 22:29N 70°35' E 022°17'0 0.0
2017-Nov-09 21:59N 70°35' E 022°17'0 0.0
2017-Nov-09 21:26N 70°35' E 022°17'0 0.0
2017-Nov-09 20:59N 70°35' E 022°17'0 0.0
2017-Nov-09 20:29N 70°35' E 022°17'0 0.0
2017-Nov-09 19:59N 70°35' E 022°17'0 0.0
2017-Nov-09 19:29N 70°35' E 022°17'0 0.0
2017-Nov-09 18:59N 70°35' E 022°17'0 0.0
2017-Nov-09 18:29N 70°35' E 022°17'0 0.0
2017-Nov-09 17:59N 70°35' E 022°17'0 0.0
2017-Nov-09 17:29N 70°35' E 022°17'0 0.0
2017-Nov-09 16:59N 70°35' E 022°17'0 0.0
2017-Nov-09 16:29N 70°35' E 022°17'0 0.0
2017-Nov-09 15:59N 70°35' E 022°17'0 0.0
2017-Nov-09 15:26N 70°35' E 022°17'0 0.0
2017-Nov-09 14:59N 70°35' E 022°17'0 0.0
2017-Nov-09 14:29N 70°35' E 022°17'0 0.0
2017-Nov-09 13:59N 70°35' E 022°17'0 0.0
2017-Nov-09 13:29N 70°35' E 022°17'0 0.0
2017-Nov-09 12:59N 70°35' E 022°17'0 0.0
2017-Nov-09 12:29N 70°35' E 022°17'0 0.0
2017-Nov-09 11:59N 70°35' E 022°17'0 0.0
2017-Nov-09 11:29N 70°35' E 022°17'0 0.0
2017-Nov-09 10:59N 70°35' E 022°17'0 0.1
2017-Nov-09 10:28N 70°35' E 022°17'0 0.0
2017-Nov-09 09:58N 70°35' E 022°17'0 0.1
2017-Nov-09 09:30N 70°35' E 022°17'0 0.0
2017-Nov-09 09:00N 70°35' E 022°17'0 0.0
2017-Nov-09 08:30N 70°35' E 022°17'0 0.0
2017-Nov-09 08:00N 70°35' E 022°17'0 0.0
2017-Nov-09 07:30N 70°35' E 022°17'0 0.0
2017-Nov-09 07:00N 70°35' E 022°17'0 0.0
2017-Nov-09 06:30N 70°35' E 022°17'0 0.0
2017-Nov-09 06:00N 70°35' E 022°17'0 0.0
2017-Nov-09 05:30N 70°35' E 022°17'0 0.0
2017-Nov-09 05:00N 70°35' E 022°17'0 0.0
2017-Nov-09 04:27N 70°35' E 022°17'0 0.0
2017-Nov-09 04:00N 70°35' E 022°17'0 0.0
2017-Nov-09 03:30N 70°35' E 022°17'0 0.0
2017-Nov-09 03:00N 70°35' E 022°17'0 0.0
2017-Nov-09 02:30N 70°35' E 022°17'0 0.0
2017-Nov-09 01:59N 70°35' E 022°17'3 6.3
2017-Nov-09 01:29N 70°34' E 022°09'4 8.5
2017-Nov-09 01:00N 70°30' E 022°04'3 6.0
2017-Nov-09 00:30N 70°28' E 022°11'5 9.4
2017-Nov-08 23:59N 70°29' E 022°25'4 9.0
2017-Nov-08 23:29N 70°29' E 022°38'4 8.5
2017-Nov-08 23:00N 70°31' E 022°50'4 8.3
2017-Nov-08 22:30N 70°33' E 023°01'4 8.6
2017-Nov-08 22:00N 70°36' E 023°09'5 8.9
2017-Nov-08 21:30N 70°40' E 023°17'5 8.9
2017-Nov-08 21:00N 70°43' E 023°27'4 8.7
2017-Nov-08 20:30N 70°45' E 023°37'4 8.2
2017-Nov-08 20:00N 70°48' E 023°47'4 8.4
2017-Nov-08 19:30N 70°51' E 023°57'4 8.5
2017-Nov-08 19:00N 70°53' E 024°08'4 7.7
2017-Nov-08 18:29N 70°55' E 024°17'4 7.9
2017-Nov-08 18:00N 70°58' E 024°26'4 8.1
2017-Nov-08 17:29N 70°60' E 024°38'1 1.3
2017-Nov-08 16:59N 70°60' E 024°40'0 0.0
2017-Nov-08 16:29N 70°60' E 024°40'0 0.0
2017-Nov-08 15:59N 70°60' E 024°40'0 0.0
2017-Nov-08 15:29N 70°60' E 024°40'0 0.0
2017-Nov-08 14:59N 70°60' E 024°40'1 1.4
2017-Nov-08 14:28N 70°60' E 024°42'0 0.2
2017-Nov-08 14:00N 70°60' E 024°42'4 7.5
2017-Nov-08 13:30N 70°58' E 024°32'0 0.5
2017-Nov-08 13:00N 70°57' E 024°33'0 0.4
2017-Nov-08 12:30N 70°58' E 024°33'0 0.1
2017-Nov-08 12:00N 70°58' E 024°33'0 0.9
2017-Nov-08 11:30N 70°58' E 024°34'0 0.4
2017-Nov-08 10:52N 70°58' E 024°33'0 1.3
2017-Nov-08 10:30N 70°57' E 024°34'0 0.6
2017-Nov-08 10:00N 70°57' E 024°34'0 0.7
2017-Nov-08 09:30N 70°57' E 024°33'0 0.4
2017-Nov-08 09:00N 70°57' E 024°33'1 1.2
2017-Nov-08 08:30N 70°58' E 024°35'0 0.5
2017-Nov-08 07:58N 70°57' E 024°36'2 3.2
2017-Nov-08 07:30N 70°58' E 024°32'3 5.7
2017-Nov-08 07:00N 70°60' E 024°40'0 0.0
2017-Nov-08 06:30N 70°60' E 024°40'0 0.0
2017-Nov-08 06:00N 70°60' E 024°40'0 0.0
2017-Nov-08 05:30N 70°60' E 024°40'0 0.0
2017-Nov-08 05:00N 70°60' E 024°40'0 0.0
2017-Nov-08 04:30N 70°60' E 024°40'0 0.0
2017-Nov-08 04:00N 70°60' E 024°40'0 0.0
2017-Nov-08 03:30N 70°60' E 024°40'0 0.0
2017-Nov-08 03:00N 70°60' E 024°40'0 0.0
2017-Nov-08 02:30N 70°60' E 024°40'0 0.0
2017-Nov-08 02:00N 70°60' E 024°40'0 0.0
2017-Nov-08 01:30N 70°60' E 024°40'0 0.0
2017-Nov-08 01:00N 70°60' E 024°40'0 0.0
2017-Nov-08 00:30N 70°60' E 024°40'0 0.0
2017-Nov-08 00:00N 70°60' E 024°40'0 0.0
2017-Nov-07 23:30N 70°60' E 024°40'0 0.0
2017-Nov-07 23:00N 70°60' E 024°40'0 0.0
2017-Nov-07 22:30N 70°60' E 024°40'0 0.0
2017-Nov-07 22:00N 70°60' E 024°40'0 0.0
2017-Nov-07 21:30N 70°60' E 024°40'0 0.0
2017-Nov-07 21:00N 70°60' E 024°40'0 0.0
2017-Nov-07 20:30N 70°60' E 024°40'0 0.0
2017-Nov-07 20:00N 70°60' E 024°40'0 0.0
2017-Nov-07 19:30N 70°60' E 024°40'0 0.0
2017-Nov-07 19:00N 70°60' E 024°40'0 0.0
2017-Nov-07 18:30N 70°60' E 024°40'0 0.0
2017-Nov-07 18:00N 70°60' E 024°40'0 0.0
2017-Nov-07 17:30N 70°60' E 024°40'0 0.0
2017-Nov-07 17:00N 70°60' E 024°40'2 3.8
2017-Nov-07 16:30N 70°59' E 024°34'2 3.3
2017-Nov-07 16:00N 70°58' E 024°33'0 0.6
2017-Nov-07 15:30N 70°57' E 024°34'0 0.9
2017-Nov-07 14:59N 70°58' E 024°33'0 0.5
2017-Nov-07 14:30N 70°58' E 024°32'0 0.9
2017-Nov-07 14:00N 70°58' E 024°33'0 0.3
2017-Nov-07 13:29N 70°57' E 024°33'0 0.3
2017-Nov-07 13:00N 70°58' E 024°34'0 0.3
2017-Nov-07 12:28N 70°57' E 024°34'1 1.3
2017-Nov-07 11:59N 70°57' E 024°32'1 1.1
2017-Nov-07 11:31N 70°58' E 024°34'0 0.4
2017-Nov-07 11:00N 70°57' E 024°34'0 0.4
2017-Nov-07 10:29N 70°57' E 024°33'0 0.1
2017-Nov-07 10:00N 70°57' E 024°33'1 1.8
2017-Nov-07 09:29N 70°58' E 024°31'3 6.6
2017-Nov-07 09:00N 70°60' E 024°40'0 0.2
2017-Nov-07 08:30N 70°60' E 024°40'0 0.0
2017-Nov-07 08:00N 70°60' E 024°40'0 0.0
2017-Nov-07 07:30N 70°60' E 024°40'0 0.0
2017-Nov-07 07:00N 70°60' E 024°40'0 0.0
2017-Nov-07 06:30N 70°60' E 024°40'1 2.1
2017-Nov-07 06:00N 70°59' E 024°37'4 8.4
2017-Nov-07 05:30N 70°57' E 024°25'4 8.7
2017-Nov-07 05:00N 70°55' E 024°15'5 8.9
2017-Nov-07 04:30N 70°52' E 024°04'4 8.5
2017-Nov-07 04:00N 70°49' E 023°54'4 8.2
2017-Nov-07 03:30N 70°47' E 023°45'4 7.5
2017-Nov-07 03:00N 70°44' E 023°37'4 8.0
2017-Nov-07 02:30N 70°40' E 023°39'1 1.9
2017-Nov-07 02:00N 70°40' E 023°41'0 0.0
2017-Nov-07 01:30N 70°40' E 023°41'0 0.0
2017-Nov-07 01:00N 70°40' E 023°41'0 0.0
2017-Nov-07 00:30N 70°40' E 023°41'0 0.0
2017-Nov-07 00:00N 70°40' E 023°41'0 0.0
2017-Nov-06 23:30N 70°40' E 023°41'0 0.0
2017-Nov-06 23:00N 70°40' E 023°41'0 0.0
2017-Nov-06 22:30N 70°40' E 023°41'0 0.0
2017-Nov-06 22:00N 70°40' E 023°41'0 0.0
2017-Nov-06 21:30N 70°40' E 023°41'0 0.0
2017-Nov-06 21:00N 70°40' E 023°41'0 0.0
2017-Nov-06 20:30N 70°40' E 023°41'  

Dump ship's entire track history